createdAt,value
2022-11-26T00:00:08.460Z,11.00
2022-11-26T00:01:08.436Z,10.80
2022-11-26T00:02:08.466Z,11.60
2022-11-26T00:03:08.563Z,11.80
2022-11-26T00:04:08.355Z,11.40
2022-11-26T00:05:08.332Z,11.60
2022-11-26T00:06:08.301Z,10.90
2022-11-26T00:07:08.289Z,11.20
2022-11-26T00:08:08.269Z,11.50
2022-11-26T00:09:08.224Z,11.60
2022-11-26T00:10:08.196Z,11.60
2022-11-26T00:11:08.171Z,12.20
2022-11-26T00:12:08.157Z,11.50
2022-11-26T00:13:08.119Z,11.30
2022-11-26T00:14:08.090Z,12.20
2022-11-26T00:15:08.079Z,11.30
2022-11-26T00:16:08.084Z,10.90
2022-11-26T00:17:08.011Z,11.60
2022-11-26T00:18:07.986Z,11.20
2022-11-26T00:19:07.959Z,11.30
2022-11-26T00:20:07.930Z,11.70
2022-11-26T00:21:07.904Z,12.00
2022-11-26T00:22:07.877Z,11.30
2022-11-26T00:23:07.851Z,12.00
2022-11-26T00:24:07.839Z,10.70
2022-11-26T00:25:07.799Z,11.50
2022-11-26T00:26:07.770Z,11.50
2022-11-26T00:27:07.747Z,11.10
2022-11-26T00:28:07.719Z,11.10
2022-11-26T00:29:07.693Z,11.70
2022-11-26T00:30:07.663Z,11.20
2022-11-26T00:31:07.639Z,11.60
2022-11-26T00:32:07.646Z,11.70
2022-11-26T00:33:07.586Z,11.40
2022-11-26T00:34:07.557Z,11.80
2022-11-26T00:35:07.533Z,11.60
2022-11-26T00:36:07.506Z,11.80
2022-11-26T00:37:07.480Z,11.50
2022-11-26T00:38:07.453Z,11.80
2022-11-26T00:39:07.427Z,11.30
2022-11-26T00:40:07.415Z,11.40
2022-11-26T00:41:07.373Z,11.70
2022-11-26T00:42:07.342Z,11.90
2022-11-26T00:43:07.322Z,10.90
2022-11-26T00:44:07.295Z,11.60
2022-11-26T00:45:07.265Z,11.40
2022-11-26T00:46:07.276Z,11.00
2022-11-26T00:47:07.211Z,11.60
2022-11-26T00:48:07.186Z,11.90
2022-11-26T00:49:07.158Z,11.60
2022-11-26T00:50:07.132Z,11.40
2022-11-26T00:51:07.105Z,12.50
2022-11-26T00:52:07.079Z,11.90
2022-11-26T00:53:07.052Z,11.80
2022-11-26T00:54:07.024Z,11.70
2022-11-26T00:55:07.000Z,11.10
2022-11-26T00:56:06.994Z,11.70
2022-11-26T00:57:06.945Z,11.40
2022-11-26T00:58:06.918Z,11.60
2022-11-26T00:59:06.895Z,11.30
2022-11-26T01:00:06.864Z,11.80
2022-11-26T01:01:06.892Z,11.90
2022-11-26T01:02:06.870Z,11.40
2022-11-26T01:03:06.786Z,11.60
2022-11-26T01:04:06.757Z,11.50
2022-11-26T01:05:06.737Z,12.40
2022-11-26T01:06:06.703Z,12.50
2022-11-26T01:07:06.677Z,12.30
2022-11-26T01:08:06.650Z,12.30
2022-11-26T01:09:06.626Z,13.10
2022-11-26T01:10:06.597Z,12.30
2022-11-26T01:11:06.571Z,13.50
2022-11-26T01:12:06.562Z,13.40
2022-11-26T01:13:06.523Z,13.60
2022-11-26T01:14:06.489Z,13.10
2022-11-26T01:15:06.465Z,13.80
2022-11-26T01:16:06.449Z,14.00
2022-11-26T01:17:06.414Z,14.20
2022-11-26T01:18:06.382Z,14.00
2022-11-26T01:19:06.359Z,13.80
2022-11-26T01:20:06.329Z,14.80
2022-11-26T01:21:06.321Z,13.50
2022-11-26T01:23:13.753Z,14.10
2022-11-26T01:24:13.722Z,14.60
2022-11-26T01:25:13.698Z,14.90
2022-11-26T01:26:13.668Z,14.90
2022-11-26T01:27:13.661Z,14.20
2022-11-26T01:28:13.615Z,14.30
2022-11-26T01:29:13.589Z,14.70
2022-11-26T01:30:13.560Z,14.80
2022-11-26T01:31:13.596Z,15.20
2022-11-26T01:32:13.507Z,14.30
2022-11-26T01:33:13.487Z,14.60
2022-11-26T01:34:13.460Z,14.70
2022-11-26T01:35:13.428Z,14.70
2022-11-26T01:36:13.401Z,15.20
2022-11-26T01:37:13.371Z,15.90
2022-11-26T01:38:13.344Z,14.60
2022-11-26T01:39:13.321Z,14.70
2022-11-26T01:40:13.292Z,15.00
2022-11-26T01:41:13.267Z,15.20
2022-11-26T01:42:13.238Z,14.50
2022-11-26T01:43:13.229Z,15.10
2022-11-26T01:44:13.191Z,14.00
2022-11-26T01:45:13.156Z,14.00
2022-11-26T01:46:13.195Z,15.30
2022-11-26T01:47:13.103Z,15.00
2022-11-26T01:48:13.076Z,14.50
2022-11-26T01:49:13.049Z,14.80
2022-11-26T01:50:13.022Z,14.80
2022-11-26T01:51:12.996Z,15.40
2022-11-26T01:52:12.968Z,15.10
2022-11-26T01:53:12.939Z,15.90
2022-11-26T01:54:12.913Z,15.10
2022-11-26T01:55:12.892Z,14.80
2022-11-26T01:56:12.862Z,15.60
2022-11-26T01:57:12.834Z,15.90
2022-11-26T01:58:12.804Z,15.20
2022-11-26T01:59:12.800Z,15.10
2022-11-26T02:00:12.750Z,14.50
2022-11-26T02:01:12.852Z,14.50
2022-11-26T02:02:12.745Z,15.20
2022-11-26T02:03:12.672Z,14.40
2022-11-26T02:04:12.643Z,15.00
2022-11-26T02:05:12.620Z,15.60
2022-11-26T02:06:12.587Z,15.40
2022-11-26T02:07:12.614Z,15.80
2022-11-26T02:08:12.537Z,16.00
2022-11-26T02:09:12.507Z,16.10
2022-11-26T02:10:12.477Z,15.50
2022-11-26T02:11:12.456Z,16.00
2022-11-26T02:12:12.426Z,16.60
2022-11-26T02:13:12.399Z,15.10
2022-11-26T02:14:12.374Z,16.60
2022-11-26T02:15:12.362Z,16.70
2022-11-26T02:16:12.367Z,16.30
2022-11-26T02:17:12.294Z,16.60
2022-11-26T02:18:12.263Z,16.30
2022-11-26T02:19:12.239Z,14.90
2022-11-26T02:20:12.209Z,15.70
2022-11-26T02:21:12.186Z,15.80
2022-11-26T02:22:12.156Z,15.40
2022-11-26T02:23:12.135Z,15.60
2022-11-26T02:24:12.102Z,16.10
2022-11-26T02:25:12.075Z,15.80
2022-11-26T02:26:12.046Z,15.50
2022-11-26T02:27:12.026Z,15.80
2022-11-26T02:28:11.993Z,16.70
2022-11-26T02:29:11.966Z,16.00
2022-11-26T02:30:11.940Z,16.90
2022-11-26T02:31:11.996Z,16.00
2022-11-26T02:32:11.924Z,16.20
2022-11-26T02:33:11.859Z,15.20
2022-11-26T02:34:11.838Z,15.20
2022-11-26T02:35:11.804Z,15.50
2022-11-26T02:36:11.776Z,15.60
2022-11-26T02:37:11.749Z,15.30
2022-11-26T02:38:11.721Z,14.90
2022-11-26T02:39:11.695Z,14.70
2022-11-26T02:40:11.667Z,15.00
2022-11-26T02:41:11.644Z,14.80
2022-11-26T02:42:11.611Z,14.90
2022-11-26T02:43:11.588Z,15.20
2022-11-26T02:44:11.558Z,15.50
2022-11-26T02:45:11.533Z,15.10
2022-11-26T02:46:11.629Z,14.50
2022-11-26T02:47:11.499Z,16.00
2022-11-26T02:48:11.449Z,14.40
2022-11-26T02:49:11.425Z,14.50
2022-11-26T02:50:11.397Z,14.30
2022-11-26T02:51:11.373Z,14.70
2022-11-26T02:52:11.344Z,14.80
2022-11-26T02:53:11.319Z,14.60
2022-11-26T02:54:11.294Z,14.30
2022-11-26T02:55:11.265Z,14.30
2022-11-26T02:56:11.238Z,14.80
2022-11-26T02:57:11.213Z,14.90
2022-11-26T02:58:11.181Z,14.90
2022-11-26T02:59:11.154Z,13.50
2022-11-26T03:00:11.130Z,14.40
2022-11-26T03:01:11.174Z,13.70
2022-11-26T03:02:11.071Z,14.30
2022-11-26T03:03:11.065Z,13.60
2022-11-26T03:04:11.073Z,14.40
2022-11-26T03:05:10.993Z,13.70
2022-11-26T03:06:10.968Z,13.60
2022-11-26T03:07:10.970Z,14.20
2022-11-26T03:08:10.912Z,14.30
2022-11-26T03:09:10.887Z,15.90
2022-11-26T03:10:10.862Z,14.80
2022-11-26T03:11:10.832Z,14.40
2022-11-26T03:12:10.878Z,14.20
2022-11-26T03:13:10.779Z,14.20
2022-11-26T03:14:10.749Z,14.00
2022-11-26T03:15:10.729Z,15.00
2022-11-26T03:16:10.747Z,15.30
2022-11-26T03:17:10.672Z,15.20
2022-11-26T03:18:10.643Z,14.30
2022-11-26T03:19:10.638Z,14.70
2022-11-26T03:20:10.591Z,15.20
2022-11-26T03:21:10.563Z,14.20
2022-11-26T03:22:10.534Z,15.10
2022-11-26T03:23:10.515Z,15.10
2022-11-26T03:24:10.483Z,13.30
2022-11-26T03:25:10.456Z,13.90
2022-11-26T03:26:10.429Z,14.20
2022-11-26T03:27:10.403Z,14.90
2022-11-26T03:28:10.378Z,14.70
2022-11-26T03:29:10.349Z,14.50
2022-11-26T03:30:10.328Z,14.00
2022-11-26T03:31:10.301Z,14.40
2022-11-26T03:32:10.268Z,13.40
2022-11-26T03:33:10.251Z,13.40
2022-11-26T03:34:10.213Z,12.80
2022-11-26T03:35:10.211Z,12.60
2022-11-26T03:36:10.163Z,12.90
2022-11-26T03:37:10.136Z,12.00
2022-11-26T03:38:10.104Z,11.80
2022-11-26T03:39:10.083Z,12.20
2022-11-26T03:40:10.052Z,11.90
2022-11-26T03:41:10.026Z,11.40
2022-11-26T03:42:09.998Z,13.10
2022-11-26T03:43:09.973Z,12.60
2022-11-26T03:44:09.943Z,11.90
2022-11-26T03:45:09.918Z,12.50
2022-11-26T03:46:09.921Z,11.40
2022-11-26T03:47:09.866Z,12.00
2022-11-26T03:48:09.838Z,11.40
2022-11-26T03:49:09.811Z,11.80
2022-11-26T03:50:09.784Z,11.40
2022-11-26T03:51:09.775Z,11.80
2022-11-26T03:52:09.739Z,11.10
2022-11-26T03:53:09.705Z,11.60
2022-11-26T03:54:09.674Z,10.80
2022-11-26T03:55:09.647Z,11.00
2022-11-26T03:56:09.623Z,10.90
2022-11-26T03:57:09.595Z,10.90
2022-11-26T03:58:09.566Z,11.40
2022-11-26T03:59:09.542Z,10.90
2022-11-26T04:00:09.510Z,10.60
2022-11-26T04:01:09.541Z,11.40
2022-11-26T04:02:09.457Z,11.10
2022-11-26T04:03:09.498Z,11.30
2022-11-26T04:04:09.404Z,11.20
2022-11-26T04:05:09.377Z,11.30
2022-11-26T04:06:09.348Z,11.50
2022-11-26T04:07:09.420Z,11.50
2022-11-26T04:08:09.295Z,10.90
2022-11-26T04:09:09.276Z,11.60
2022-11-26T04:10:09.253Z,11.10
2022-11-26T04:11:09.218Z,11.10
2022-11-26T04:12:09.191Z,11.70
2022-11-26T04:13:09.162Z,11.10
2022-11-26T04:14:09.135Z,11.00
2022-11-26T04:15:09.105Z,11.40
2022-11-26T04:16:09.160Z,10.70
2022-11-26T04:17:09.053Z,11.10
2022-11-26T04:18:09.027Z,11.60
2022-11-26T04:19:09.001Z,11.60
2022-11-26T04:20:08.975Z,10.90
2022-11-26T04:21:08.945Z,11.50
2022-11-26T04:22:08.916Z,10.90
2022-11-26T04:23:08.906Z,11.80
2022-11-26T04:24:08.862Z,11.40
2022-11-26T04:25:08.838Z,11.60
2022-11-26T04:26:08.807Z,11.60
2022-11-26T04:27:08.783Z,12.00
2022-11-26T04:28:08.755Z,11.30
2022-11-26T04:29:08.730Z,11.90
2022-11-26T04:30:08.699Z,12.20
2022-11-26T04:31:08.677Z,11.90
2022-11-26T04:32:08.730Z,11.00
2022-11-26T04:33:08.618Z,11.90
2022-11-26T04:34:08.596Z,12.10
2022-11-26T04:35:08.564Z,11.40
2022-11-26T04:36:08.537Z,11.50
2022-11-26T04:37:08.512Z,13.00
2022-11-26T04:38:08.483Z,13.00
2022-11-26T04:39:08.476Z,12.00
2022-11-26T04:40:08.429Z,12.30
2022-11-26T04:41:08.405Z,12.40
2022-11-26T04:42:08.379Z,12.40
2022-11-26T04:43:08.351Z,12.10
2022-11-26T04:44:08.322Z,12.20
2022-11-26T04:45:08.294Z,12.60
2022-11-26T04:46:08.325Z,12.70
2022-11-26T04:47:08.242Z,12.20
2022-11-26T04:48:08.211Z,12.20
2022-11-26T04:49:08.189Z,12.10
2022-11-26T04:50:08.160Z,12.40
2022-11-26T04:51:08.136Z,12.20
2022-11-26T04:52:08.105Z,13.10
2022-11-26T04:53:08.079Z,13.00
2022-11-26T04:54:12.746Z,12.60
2022-11-26T04:55:08.045Z,12.90
2022-11-26T04:56:07.994Z,13.00
2022-11-26T04:57:07.969Z,12.90
2022-11-26T04:58:07.940Z,13.30
2022-11-26T04:59:07.916Z,13.50
2022-11-26T05:00:07.886Z,13.50
2022-11-26T05:01:07.910Z,13.80
2022-11-26T05:02:07.830Z,13.60
2022-11-26T05:03:07.953Z,13.60
2022-11-26T05:04:07.776Z,13.40
2022-11-26T05:05:07.749Z,13.10
2022-11-26T05:06:07.723Z,14.90
2022-11-26T05:07:07.783Z,13.40
2022-11-26T05:08:07.667Z,13.00
2022-11-26T05:09:07.643Z,13.20
2022-11-26T05:10:07.612Z,12.90
2022-11-26T05:11:07.606Z,13.50
2022-11-26T05:12:07.557Z,12.80
2022-11-26T05:13:07.534Z,13.40
2022-11-26T05:14:07.504Z,13.40
2022-11-26T05:15:07.478Z,13.80
2022-11-26T05:16:07.497Z,14.00
2022-11-26T05:17:07.423Z,14.70
2022-11-26T05:18:07.396Z,13.60
2022-11-26T05:19:07.369Z,13.80
2022-11-26T05:20:07.342Z,12.70
2022-11-26T05:21:07.314Z,13.40
2022-11-26T05:22:07.283Z,13.10
2022-11-26T05:23:07.266Z,13.90
2022-11-26T05:24:07.230Z,14.40
2022-11-26T05:25:07.209Z,14.40
2022-11-26T05:26:07.181Z,14.00
2022-11-26T05:27:07.168Z,14.50
2022-11-26T05:28:07.121Z,14.90
2022-11-26T05:29:07.096Z,14.80
2022-11-26T05:30:07.066Z,13.60
2022-11-26T05:31:07.041Z,14.60
2022-11-26T05:32:07.079Z,14.40
2022-11-26T05:33:06.984Z,14.80
2022-11-26T05:34:06.962Z,14.40
2022-11-26T05:35:06.930Z,15.10
2022-11-26T05:36:06.903Z,14.80
2022-11-26T05:37:06.874Z,14.90
2022-11-26T05:38:06.849Z,15.00
2022-11-26T05:39:06.819Z,14.30
2022-11-26T05:40:06.795Z,14.40
2022-11-26T05:41:06.763Z,14.50
2022-11-26T05:42:09.344Z,15.30
2022-11-26T05:43:06.727Z,14.80
2022-11-26T05:44:06.684Z,15.90
2022-11-26T05:45:06.655Z,15.40
2022-11-26T05:46:06.728Z,14.80
2022-11-26T05:47:06.621Z,15.40
2022-11-26T05:48:06.578Z,15.20
2022-11-26T05:49:06.544Z,15.70
2022-11-26T05:50:06.531Z,14.90
2022-11-26T05:51:06.490Z,14.20
2022-11-26T05:52:06.464Z,14.00
2022-11-26T05:53:06.435Z,14.60
2022-11-26T05:54:06.409Z,14.20
2022-11-26T05:55:06.380Z,15.00
2022-11-26T05:56:06.355Z,14.70
2022-11-26T05:57:06.330Z,15.00
2022-11-26T05:58:06.299Z,15.30
2022-11-26T05:59:06.292Z,15.30
2022-11-26T06:00:06.243Z,14.60
2022-11-26T06:01:06.215Z,14.70
2022-11-26T06:02:06.271Z,14.50
2022-11-26T06:03:06.266Z,14.70
2022-11-26T06:04:06.136Z,15.10
2022-11-26T06:05:06.103Z,14.10
2022-11-26T06:06:06.080Z,14.30
2022-11-26T06:07:06.053Z,14.50
2022-11-26T06:08:06.023Z,13.70
2022-11-26T06:09:05.996Z,14.10
2022-11-26T06:10:05.972Z,14.90
2022-11-26T06:11:05.940Z,14.10
2022-11-26T06:12:05.915Z,14.10
2022-11-26T06:13:05.886Z,14.00
2022-11-26T06:14:05.857Z,14.40
2022-11-26T06:15:05.848Z,14.80
2022-11-26T06:16:05.832Z,14.20
2022-11-26T06:17:05.776Z,14.50
2022-11-26T06:18:05.750Z,13.90
2022-11-26T06:19:05.722Z,13.70
2022-11-26T06:20:05.699Z,14.20
2022-11-26T06:21:05.665Z,13.30
2022-11-26T06:22:05.638Z,15.30
2022-11-26T06:23:05.614Z,15.30
2022-11-26T06:24:05.589Z,14.00
2022-11-26T06:25:05.556Z,13.40
2022-11-26T06:26:05.530Z,14.40
2022-11-26T06:27:05.500Z,14.70
2022-11-26T06:28:05.476Z,14.10
2022-11-26T06:29:05.446Z,15.10
2022-11-26T06:30:05.419Z,14.00
2022-11-26T06:31:05.455Z,14.30
2022-11-26T06:32:05.362Z,14.40
2022-11-26T06:33:05.334Z,14.50
2022-11-26T06:34:05.307Z,15.50
2022-11-26T06:35:05.286Z,14.90
2022-11-26T06:36:05.259Z,15.10
2022-11-26T06:37:05.222Z,14.80
2022-11-26T06:38:05.200Z,13.50
2022-11-26T06:39:05.171Z,14.40
2022-11-26T06:40:05.144Z,13.90
2022-11-26T06:41:05.139Z,13.70
2022-11-26T06:42:05.092Z,14.40
2022-11-26T06:43:05.061Z,14.70
2022-11-26T06:44:05.035Z,15.40
2022-11-26T06:45:05.009Z,14.80
2022-11-26T06:46:05.089Z,14.30
2022-11-26T06:47:04.969Z,14.20
2022-11-26T06:48:04.923Z,15.10
2022-11-26T06:49:04.897Z,14.60
2022-11-26T06:50:10.453Z,14.90
2022-11-26T06:51:04.841Z,14.80
2022-11-26T06:52:04.817Z,15.30
2022-11-26T06:53:04.786Z,14.90
2022-11-26T06:54:04.762Z,14.20
2022-11-26T06:55:04.733Z,14.00
2022-11-26T06:56:04.707Z,13.90
2022-11-26T06:57:04.675Z,14.20
2022-11-26T06:58:04.651Z,14.10
2022-11-26T06:59:04.620Z,13.20
2022-11-26T07:00:04.599Z,13.60
2022-11-26T07:01:04.590Z,13.40
2022-11-26T07:02:04.707Z,13.30
2022-11-26T07:03:04.530Z,13.50
2022-11-26T07:04:04.484Z,12.10
2022-11-26T07:05:04.456Z,12.30
2022-11-26T07:06:04.432Z,12.30
2022-11-26T07:07:04.399Z,13.00
2022-11-26T07:08:04.377Z,12.20
2022-11-26T07:09:04.344Z,12.90
2022-11-26T07:10:04.320Z,12.30
2022-11-26T07:11:04.293Z,12.20
2022-11-26T07:12:04.269Z,12.90
2022-11-26T07:13:04.235Z,12.40
2022-11-26T07:14:04.211Z,12.30
2022-11-26T07:15:04.181Z,11.50
2022-11-26T07:16:04.207Z,12.50
2022-11-26T07:17:04.128Z,12.40
2022-11-26T07:18:04.099Z,12.10
2022-11-26T07:19:04.087Z,12.10
2022-11-26T07:20:04.044Z,11.90
2022-11-26T07:21:04.015Z,13.50
2022-11-26T07:22:03.994Z,11.70
2022-11-26T07:23:03.961Z,13.70
2022-11-26T07:24:03.935Z,13.90
2022-11-26T07:25:08.125Z,14.60
2022-11-26T07:26:03.879Z,14.40
2022-11-26T07:27:03.849Z,14.40
2022-11-26T07:28:03.825Z,15.40
2022-11-26T07:29:03.795Z,15.70
2022-11-26T07:30:03.768Z,16.80
2022-11-26T07:31:03.810Z,17.30
2022-11-26T07:32:03.807Z,13.90
2022-11-26T07:33:03.683Z,16.10
2022-11-26T07:34:03.660Z,15.00
2022-11-26T07:35:03.658Z,14.40
2022-11-26T07:36:03.605Z,13.60
2022-11-26T07:37:03.571Z,13.50
2022-11-26T07:38:03.548Z,13.60
2022-11-26T07:39:03.524Z,14.30
2022-11-26T07:40:03.500Z,12.80
2022-11-26T07:41:03.461Z,13.30
2022-11-26T07:42:03.439Z,14.10
2022-11-26T07:43:03.407Z,16.80
2022-11-26T07:44:03.380Z,17.50
2022-11-26T07:45:03.352Z,16.90
2022-11-26T07:46:03.390Z,14.50
2022-11-26T07:47:03.298Z,16.60
2022-11-26T07:48:03.276Z,15.10
2022-11-26T07:49:03.242Z,16.40
2022-11-26T07:50:03.215Z,15.70
2022-11-26T07:51:03.209Z,16.40
2022-11-26T07:52:03.178Z,17.10
2022-11-26T07:53:03.132Z,17.00
2022-11-26T07:54:03.103Z,17.30
2022-11-26T07:55:05.905Z,17.70
2022-11-26T07:56:03.051Z,16.70
2022-11-26T07:57:03.026Z,16.70
2022-11-26T07:58:02.992Z,16.90
2022-11-26T07:59:02.965Z,16.50
2022-11-26T08:00:02.943Z,17.00
2022-11-26T08:01:02.943Z,16.20
2022-11-26T08:02:02.995Z,17.00
2022-11-26T08:03:02.923Z,16.70
2022-11-26T08:04:02.827Z,16.60
2022-11-26T08:05:02.798Z,16.40
2022-11-26T08:06:02.771Z,17.40
2022-11-26T08:07:02.763Z,17.20
2022-11-26T08:08:02.818Z,16.50
2022-11-26T08:09:02.689Z,16.50
2022-11-26T08:10:02.660Z,16.80
2022-11-26T08:11:02.636Z,16.10
2022-11-26T08:12:02.607Z,17.20
2022-11-26T08:13:02.575Z,16.70
2022-11-26T08:14:02.559Z,16.50
2022-11-26T08:15:02.522Z,17.30
2022-11-26T08:16:02.574Z,17.10
2022-11-26T08:17:02.465Z,16.10
2022-11-26T08:18:02.441Z,16.30
2022-11-26T08:19:02.411Z,16.10
2022-11-26T08:20:02.388Z,16.50
2022-11-26T08:21:02.355Z,16.30
2022-11-26T08:22:02.332Z,16.20
2022-11-26T08:23:02.321Z,18.20
2022-11-26T08:24:02.278Z,18.00
2022-11-26T08:25:02.244Z,17.00
2022-11-26T08:27:02.191Z,18.80
2022-11-26T08:28:02.166Z,19.50
2022-11-26T08:29:02.155Z,20.00
2022-11-26T08:30:02.117Z,21.30
2022-11-26T08:31:02.177Z,20.00
2022-11-26T08:32:02.084Z,18.40
2022-11-26T08:33:02.025Z,20.20
2022-11-26T08:34:02.000Z,20.60
2022-11-26T08:35:01.981Z,19.10
2022-11-26T08:36:08.984Z,18.50
2022-11-26T08:37:01.923Z,19.40
2022-11-26T08:38:01.893Z,18.80
2022-11-26T08:39:01.889Z,20.30
2022-11-26T08:40:01.860Z,20.90
2022-11-26T08:41:01.814Z,19.10
2022-11-26T08:42:01.788Z,19.70
2022-11-26T08:43:01.757Z,20.40
2022-11-26T08:44:06.564Z,21.40
2022-11-26T08:45:01.713Z,21.30
2022-11-26T08:46:01.745Z,22.00
2022-11-26T08:47:01.645Z,21.90
2022-11-26T08:48:01.621Z,20.90
2022-11-26T08:49:01.594Z,21.50
2022-11-26T08:50:01.585Z,21.80
2022-11-26T08:51:01.534Z,21.80
2022-11-26T08:52:01.509Z,21.60
2022-11-26T08:53:01.479Z,22.20
2022-11-26T08:54:01.457Z,22.50
2022-11-26T08:55:01.443Z,21.80
2022-11-26T08:56:01.412Z,21.30
2022-11-26T08:57:01.370Z,21.50
2022-11-26T08:58:01.348Z,21.70
2022-11-26T08:59:01.317Z,22.00
2022-11-26T09:00:01.312Z,22.10
2022-11-26T09:01:01.327Z,21.40
2022-11-26T09:02:01.265Z,21.90
2022-11-26T09:03:01.255Z,21.30
2022-11-26T09:04:01.184Z,22.80
2022-11-26T09:05:01.154Z,23.80
2022-11-26T09:06:01.128Z,23.10
2022-11-26T09:07:01.099Z,23.70
2022-11-26T09:08:01.126Z,23.90
2022-11-26T09:09:01.050Z,22.90
2022-11-26T09:10:01.022Z,22.40
2022-11-26T09:11:01.011Z,24.10
2022-11-26T09:12:00.968Z,23.90
2022-11-26T09:13:00.938Z,22.50
2022-11-26T09:14:00.912Z,24.10
2022-11-26T09:15:00.925Z,24.00
2022-11-26T09:16:01.017Z,24.10
2022-11-26T09:17:00.879Z,24.40
2022-11-26T09:18:00.804Z,24.70
2022-11-26T09:19:00.791Z,23.60
2022-11-26T09:20:00.753Z,24.90
2022-11-26T09:21:00.722Z,23.30
2022-11-26T09:22:00.697Z,23.80
2022-11-26T09:23:00.668Z,23.80
2022-11-26T09:24:00.646Z,23.70
2022-11-26T09:25:00.615Z,23.50
2022-11-26T09:26:00.590Z,22.60
2022-11-26T09:27:07.290Z,21.60
2022-11-26T09:28:00.536Z,22.20
2022-11-26T09:29:00.506Z,22.80
2022-11-26T09:30:00.481Z,23.40
2022-11-26T09:31:00.454Z,22.50
2022-11-26T09:32:22.526Z,22.40
2022-11-26T09:33:00.462Z,22.70
2022-11-26T09:34:00.372Z,22.20
2022-11-26T09:35:00.346Z,22.80
2022-11-26T09:36:00.320Z,23.00
2022-11-26T09:37:00.291Z,22.70
2022-11-26T09:38:00.265Z,23.20
2022-11-26T09:39:00.239Z,22.90
2022-11-26T09:40:00.218Z,22.70
2022-11-26T09:41:00.183Z,24.50
2022-11-26T09:42:00.163Z,23.20
2022-11-26T09:43:00.153Z,22.70
2022-11-26T09:44:00.110Z,23.40
2022-11-26T09:45:00.082Z,23.90
2022-11-26T09:46:00.097Z,23.30
2022-11-26T09:47:13.082Z,23.10
2022-11-26T09:47:59.999Z,23.30
2022-11-26T09:49:04.028Z,23.90
2022-11-26T09:49:59.946Z,23.60
2022-11-26T09:50:59.915Z,23.10
2022-11-26T09:51:59.892Z,22.50
2022-11-26T09:52:59.861Z,24.40
2022-11-26T09:53:59.837Z,23.80
2022-11-26T09:54:59.810Z,23.10
2022-11-26T09:55:59.785Z,22.70
2022-11-26T09:56:59.758Z,23.50
2022-11-26T09:57:59.731Z,24.00
2022-11-26T09:58:59.724Z,22.60
2022-11-26T09:59:59.674Z,24.40
2022-11-26T10:00:59.805Z,23.10
2022-11-26T10:01:59.705Z,23.80
2022-11-26T10:02:59.599Z,23.50
2022-11-26T10:03:59.570Z,24.70
2022-11-26T10:04:59.542Z,24.20
2022-11-26T10:05:59.517Z,23.90
2022-11-26T10:06:59.491Z,24.70
2022-11-26T10:07:59.545Z,24.50
2022-11-26T10:08:59.439Z,23.90
2022-11-26T10:09:59.411Z,25.10
2022-11-26T10:11:03.841Z,23.50
2022-11-26T10:11:59.362Z,24.00
2022-11-26T10:13:19.751Z,23.90
2022-11-26T10:13:59.306Z,23.90
2022-11-26T10:14:59.299Z,25.10
2022-11-26T10:15:59.444Z,24.40
2022-11-26T10:16:59.226Z,23.70
2022-11-26T10:17:59.198Z,24.90
2022-11-26T10:18:59.172Z,23.20
2022-11-26T10:19:59.150Z,24.10
2022-11-26T10:20:59.119Z,23.50
2022-11-26T10:21:59.948Z,24.10
2022-11-26T10:22:59.066Z,25.00
2022-11-26T10:23:59.039Z,23.30
2022-11-26T10:24:59.012Z,24.80
2022-11-26T10:25:58.985Z,23.90
2022-11-26T10:26:58.961Z,23.20
2022-11-26T10:27:58.935Z,23.80
2022-11-26T10:28:58.907Z,22.30
2022-11-26T10:29:58.881Z,23.20
2022-11-26T10:30:58.877Z,22.60
2022-11-26T10:31:58.915Z,22.30
2022-11-26T10:32:58.802Z,22.10
2022-11-26T10:33:58.780Z,21.60
2022-11-26T10:34:58.751Z,21.80
2022-11-26T10:35:58.721Z,20.90
2022-11-26T10:36:58.699Z,21.30
2022-11-26T10:37:58.673Z,21.60
2022-11-26T10:38:58.647Z,22.10
2022-11-26T10:40:03.174Z,21.20
2022-11-26T10:40:58.593Z,20.00
2022-11-26T10:41:58.565Z,20.50
2022-11-26T10:42:58.544Z,19.40
2022-11-26T10:43:58.511Z,19.70
2022-11-26T10:44:58.490Z,18.60
2022-11-26T10:45:58.497Z,18.80
2022-11-26T10:46:58.455Z,17.60
2022-11-26T10:47:58.414Z,16.60
2022-11-26T10:48:58.382Z,17.40
2022-11-26T10:49:58.363Z,16.80
2022-11-26T10:50:58.338Z,17.00
2022-11-26T10:51:58.305Z,15.90
2022-11-26T10:52:58.278Z,15.70
2022-11-26T10:53:58.254Z,16.20
2022-11-26T10:54:58.226Z,16.20
2022-11-26T10:55:58.198Z,16.00
2022-11-26T10:56:58.173Z,15.40
2022-11-26T10:57:58.152Z,15.50
2022-11-26T10:58:58.123Z,14.70
2022-11-26T10:59:58.105Z,15.10
2022-11-26T11:00:58.184Z,15.50
2022-11-26T11:01:58.070Z,14.60
2022-11-26T11:02:58.038Z,12.90
2022-11-26T11:04:13.335Z,13.40
2022-11-26T11:04:57.970Z,14.10
2022-11-26T11:05:57.937Z,12.60
2022-11-26T11:06:57.917Z,13.00
2022-11-26T11:07:57.936Z,13.90
2022-11-26T11:08:57.865Z,13.00
2022-11-26T11:09:57.834Z,12.90
2022-11-26T11:10:57.812Z,13.50
2022-11-26T11:11:57.782Z,13.30
2022-11-26T11:12:57.759Z,12.10
2022-11-26T11:13:57.733Z,11.80
2022-11-26T11:14:57.707Z,11.70
2022-11-26T11:15:57.713Z,12.00
2022-11-26T11:16:57.655Z,11.30
2022-11-26T11:17:57.633Z,12.80
2022-11-26T11:18:57.672Z,12.10
2022-11-26T11:19:57.582Z,11.40
2022-11-26T11:20:57.553Z,12.00
2022-11-26T11:21:57.522Z,10.80
2022-11-26T11:22:57.591Z,11.50
2022-11-26T11:24:12.923Z,12.00
2022-11-26T11:24:57.449Z,11.30
2022-11-26T11:25:57.421Z,11.60
2022-11-26T11:26:57.395Z,12.20
2022-11-26T11:27:57.372Z,11.60
2022-11-26T11:28:57.345Z,10.60
2022-11-26T11:29:57.316Z,11.60
2022-11-26T11:30:57.293Z,13.50
2022-11-26T11:31:57.348Z,12.10
2022-11-26T11:32:57.262Z,11.60
2022-11-26T11:33:57.214Z,11.50
2022-11-26T11:34:57.209Z,11.40
2022-11-26T11:35:57.163Z,10.90
2022-11-26T11:36:57.137Z,11.30
2022-11-26T11:37:57.109Z,11.90
2022-11-26T11:38:57.085Z,11.40
2022-11-26T11:39:57.060Z,11.30
2022-11-26T11:40:57.034Z,11.50
2022-11-26T11:41:57.006Z,11.10
2022-11-26T11:42:56.983Z,11.30
2022-11-26T11:43:56.956Z,10.60
2022-11-26T11:44:56.930Z,11.80
2022-11-26T11:45:56.942Z,11.60
2022-11-26T11:46:56.887Z,12.70
2022-11-26T11:47:56.851Z,12.70
2022-11-26T11:48:56.827Z,12.40
2022-11-26T11:49:56.799Z,11.40
2022-11-26T11:50:56.794Z,12.50
2022-11-26T11:51:56.747Z,13.00
2022-11-26T11:52:56.723Z,12.60
2022-11-26T11:53:56.698Z,11.20
2022-11-26T11:54:56.670Z,11.10
2022-11-26T11:56:02.052Z,12.10
2022-11-26T11:56:56.617Z,10.70
2022-11-26T11:57:56.591Z,11.60
2022-11-26T11:58:56.568Z,11.50
2022-11-26T11:59:56.540Z,10.70
2022-11-26T12:00:56.523Z,10.30
2022-11-26T12:01:56.525Z,9.80
2022-11-26T12:02:56.477Z,10.60
2022-11-26T12:03:56.476Z,10.50
2022-11-26T12:04:56.520Z,10.80
2022-11-26T12:05:56.408Z,10.80
2022-11-26T12:06:56.379Z,10.80
2022-11-26T12:07:56.415Z,9.60
2022-11-26T12:08:56.310Z,9.70
2022-11-26T12:09:56.282Z,10.60
2022-11-26T12:10:56.256Z,10.30
2022-11-26T12:11:56.231Z,10.30
2022-11-26T12:12:56.321Z,10.60
2022-11-26T12:13:56.175Z,10.70
2022-11-26T12:14:56.155Z,10.40
2022-11-26T12:15:56.125Z,11.70
2022-11-26T12:16:56.176Z,10.10
2022-11-26T12:17:56.073Z,10.20
2022-11-26T12:18:56.050Z,9.90
2022-11-26T12:19:56.020Z,9.10
2022-11-26T12:20:56.002Z,9.50
2022-11-26T12:21:55.981Z,9.80
2022-11-26T12:22:55.970Z,9.20
2022-11-26T12:23:55.918Z,9.60
2022-11-26T12:24:55.893Z,10.10
2022-11-26T12:25:55.867Z,10.50
2022-11-26T12:26:55.840Z,9.90
2022-11-26T12:27:55.815Z,9.30
2022-11-26T12:28:55.792Z,9.90
2022-11-26T12:29:55.766Z,9.80
2022-11-26T12:30:55.736Z,9.40
2022-11-26T12:31:55.812Z,9.30
2022-11-26T12:32:55.779Z,9.00
2022-11-26T12:33:55.659Z,9.30
2022-11-26T12:34:55.633Z,8.80
2022-11-26T12:35:55.607Z,8.60
2022-11-26T12:36:55.583Z,8.90
2022-11-26T12:37:55.554Z,8.80
2022-11-26T12:38:55.549Z,10.10
2022-11-26T12:39:55.502Z,8.90
2022-11-26T12:40:55.478Z,9.30
2022-11-26T12:41:55.452Z,8.60
2022-11-26T12:42:55.508Z,9.20
2022-11-26T12:43:55.398Z,8.90
2022-11-26T12:44:55.376Z,9.00
2022-11-26T12:45:55.417Z,9.30
2022-11-26T12:46:55.325Z,7.80
2022-11-26T12:47:55.298Z,8.20
2022-11-26T12:48:55.270Z,8.30
2022-11-26T12:49:55.244Z,7.40
2022-11-26T12:50:55.219Z,7.90
2022-11-26T12:51:55.195Z,8.70
2022-11-26T12:52:55.248Z,8.40
2022-11-26T12:53:55.139Z,8.00
2022-11-26T12:54:55.137Z,8.40